EGYD

RAF Cranwell Airport

Cranwell, United Kingdom
METAR EGYD 211950Z AUTO 19013KT 9999 // BKN032/// BKN050/// 03/00 Q1011
Observed Flight Rules
Jan-21 @ 19:50 UTC (48 minutes ago) Visual Flight Rules
Wind Visibility Clouds
190° at 13 knots 10,000+ meters
  • Broken at 3,200' AGL
  • Broken at 5,000' AGL
Temperatures Readings
Current 3°C / 37°F
Dewpoint 0°C / 32°F
Humidity 81%
Altimeter 29.85" Hg
Pressure 1010.92 hPa
Elevation 67
METAR EGYD 211950Z AUTO 19013KT 9999 // BKN032/// BKN050/// 03/00 Q1011
Observed Flight Rules
Jan-21 @ 19:50 UTC
(48 minutes ago)
VFR
Wind Visibility
190° at 13 knots 10,000+ meters
Clouds
  • Broken at 3,200' AGL
  • Broken at 5,000' AGL
Temperature Dewpoint
3°C / 37°F 0°C / 32°F
Humidity Altimeter Pressure
81% 29.85" Hg 1010.92 hPa